createdAt,value
2019-01-15T00:00:01.766Z,15.64
2019-01-15T00:01:03.914Z,15.63
2019-01-15T00:02:06.097Z,15.64
2019-01-15T00:03:08.122Z,15.64
2019-01-15T00:04:10.119Z,15.63
2019-01-15T00:05:12.114Z,15.62
2019-01-15T00:06:14.074Z,15.62
2019-01-15T00:07:16.001Z,15.63
2019-01-15T00:08:18.453Z,15.61
2019-01-15T00:09:20.686Z,15.62
2019-01-15T00:10:22.642Z,15.63
2019-01-15T00:11:24.626Z,15.62
2019-01-15T00:12:26.646Z,15.63
2019-01-15T00:13:28.598Z,15.62
2019-01-15T00:14:30.650Z,15.62
2019-01-15T00:15:33.322Z,15.62
2019-01-15T00:16:35.853Z,15.63
2019-01-15T00:17:39.219Z,15.62
2019-01-15T00:18:41.682Z,15.62
2019-01-15T00:19:44.750Z,15.61
2019-01-15T00:20:47.395Z,15.61
2019-01-15T00:21:50.201Z,15.60
2019-01-15T00:22:52.860Z,15.60
2019-01-15T00:24:00.970Z,15.59
2019-01-15T00:25:04.456Z,15.60
2019-01-15T00:26:07.607Z,15.60
2019-01-15T00:27:10.833Z,15.59
2019-01-15T00:28:16.217Z,15.61
2019-01-15T00:29:18.632Z,15.59
2019-01-15T00:30:21.068Z,15.59
2019-01-15T00:31:23.232Z,15.59
2019-01-15T00:32:25.678Z,15.60
2019-01-15T00:33:28.218Z,15.61
2019-01-15T00:34:30.634Z,15.60
2019-01-15T00:35:32.986Z,15.60
2019-01-15T00:36:35.136Z,15.60
2019-01-15T00:37:37.082Z,15.58
2019-01-15T00:38:39.034Z,15.60
2019-01-15T00:39:41.050Z,15.60
2019-01-15T00:40:43.026Z,15.60
2019-01-15T00:41:44.956Z,15.60
2019-01-15T00:42:46.920Z,15.59
2019-01-15T00:43:48.976Z,15.58
2019-01-15T00:44:50.907Z,15.60
2019-01-15T00:45:52.912Z,15.60
2019-01-15T00:46:55.508Z,15.59
2019-01-15T00:47:57.461Z,15.61
2019-01-15T00:48:59.432Z,15.60
2019-01-15T00:50:01.472Z,15.62
2019-01-15T00:51:03.530Z,15.59
2019-01-15T00:52:05.478Z,15.59
2019-01-15T00:53:07.435Z,15.60
2019-01-15T00:54:09.392Z,15.59
2019-01-15T00:55:11.434Z,15.59
2019-01-15T00:56:13.424Z,15.60
2019-01-15T00:57:15.382Z,15.59
2019-01-15T00:58:17.330Z,15.59
2019-01-15T00:59:19.353Z,15.59
2019-01-15T01:00:21.386Z,15.60
2019-01-15T01:01:25.913Z,15.60
2019-01-15T01:02:27.872Z,15.59
2019-01-15T01:03:29.876Z,15.58
2019-01-15T01:04:31.814Z,15.58
2019-01-15T01:05:33.781Z,15.58
2019-01-15T01:06:35.767Z,15.58
2019-01-15T01:07:37.732Z,15.57
2019-01-15T01:08:39.686Z,15.59
2019-01-15T01:09:41.632Z,15.58
2019-01-15T01:10:43.723Z,15.58
2019-01-15T01:11:45.691Z,15.58
2019-01-15T01:12:47.667Z,15.58
2019-01-15T01:13:50.459Z,15.59
2019-01-15T01:14:52.513Z,15.57
2019-01-15T01:15:54.453Z,15.58
2019-01-15T01:16:56.431Z,15.58
2019-01-15T01:17:58.377Z,15.58
2019-01-15T01:19:00.360Z,15.57
2019-01-15T01:20:02.316Z,15.57
2019-01-15T01:21:04.258Z,15.57
2019-01-15T01:22:06.318Z,15.55
2019-01-15T01:23:08.287Z,15.56
2019-01-15T01:24:10.301Z,15.56
2019-01-15T01:25:12.228Z,15.56
2019-01-15T01:26:14.181Z,15.56
2019-01-15T01:27:16.235Z,15.57
2019-01-15T01:28:18.196Z,15.57
2019-01-15T01:29:20.208Z,15.58
2019-01-15T01:30:22.141Z,15.57
2019-01-15T01:31:24.111Z,15.57
2019-01-15T01:32:26.157Z,15.58
2019-01-15T01:33:30.268Z,15.57
2019-01-15T01:34:32.211Z,15.55
2019-01-15T01:35:34.148Z,15.55
2019-01-15T01:36:36.085Z,15.56
2019-01-15T01:37:38.084Z,15.57
2019-01-15T01:38:40.085Z,15.57
2019-01-15T01:39:42.549Z,15.55
2019-01-15T01:40:44.494Z,15.55
2019-01-15T01:41:46.431Z,15.56
2019-01-15T01:42:48.381Z,15.55
2019-01-15T01:43:50.325Z,15.54
2019-01-15T01:44:52.277Z,15.56
2019-01-15T01:45:54.239Z,15.55
2019-01-15T01:46:56.182Z,15.55
2019-01-15T01:47:58.145Z,15.55
2019-01-15T01:49:00.102Z,15.55
2019-01-15T01:50:04.381Z,15.54
2019-01-15T01:51:06.393Z,15.55
2019-01-15T01:52:08.342Z,15.55
2019-01-15T01:53:10.307Z,15.55
2019-01-15T01:54:12.255Z,15.54
2019-01-15T01:55:14.226Z,15.56
2019-01-15T01:56:16.286Z,15.55
2019-01-15T01:57:20.556Z,15.56
2019-01-15T01:58:22.523Z,15.55
2019-01-15T01:59:24.475Z,15.55
2019-01-15T02:00:26.419Z,15.55
2019-01-15T02:01:28.367Z,15.56
2019-01-15T02:02:30.308Z,15.54
2019-01-15T02:03:32.281Z,15.55
2019-01-15T02:04:34.231Z,15.55
2019-01-15T02:05:36.195Z,15.56
2019-01-15T02:06:42.363Z,15.56
2019-01-15T02:07:41.821Z,15.55
2019-01-15T02:08:43.885Z,15.55
2019-01-15T02:09:45.845Z,15.53
2019-01-15T02:10:47.803Z,15.53
2019-01-15T02:11:49.751Z,15.55
2019-01-15T02:12:51.701Z,15.53
2019-01-15T02:13:53.675Z,15.54
2019-01-15T02:14:56.835Z,15.54
2019-01-15T02:15:58.845Z,15.54
2019-01-15T02:17:00.795Z,15.53
2019-01-15T02:18:04.729Z,15.53
2019-01-15T02:19:06.727Z,15.53
2019-01-15T02:20:08.673Z,15.54
2019-01-15T02:21:10.701Z,15.53
2019-01-15T02:22:12.655Z,15.54
2019-01-15T02:23:14.590Z,15.53
2019-01-15T02:24:16.851Z,15.54
2019-01-15T02:25:18.807Z,15.54
2019-01-15T02:26:20.759Z,15.54
2019-01-15T02:27:23.087Z,15.54
2019-01-15T02:28:25.025Z,15.54
2019-01-15T02:29:27.017Z,15.53
2019-01-15T02:30:29.008Z,15.52
2019-01-15T02:31:31.038Z,15.53
2019-01-15T02:32:32.991Z,15.53
2019-01-15T02:33:35.021Z,15.54
2019-01-15T02:34:36.973Z,15.55
2019-01-15T02:35:38.942Z,15.55
2019-01-15T02:36:40.883Z,15.53
2019-01-15T02:37:42.825Z,15.54
2019-01-15T02:38:44.754Z,15.54
2019-01-15T02:39:46.753Z,15.54
2019-01-15T02:40:48.705Z,15.54
2019-01-15T02:41:50.662Z,15.54
2019-01-15T02:42:52.615Z,15.54
2019-01-15T02:43:55.628Z,15.53
2019-01-15T02:44:57.665Z,15.53
2019-01-15T02:45:59.620Z,15.54
2019-01-15T02:47:01.633Z,15.53
2019-01-15T02:48:03.855Z,15.53
2019-01-15T02:49:05.805Z,15.55
2019-01-15T02:50:07.849Z,15.54
2019-01-15T02:51:09.869Z,15.55
2019-01-15T02:52:11.892Z,15.56
2019-01-15T02:53:13.831Z,15.55
2019-01-15T02:54:15.778Z,15.53
2019-01-15T02:55:17.750Z,15.55
2019-01-15T02:56:21.543Z,15.54
2019-01-15T02:57:23.506Z,15.53
2019-01-15T02:58:25.723Z,15.53
2019-01-15T02:59:27.676Z,15.53
2019-01-15T03:00:29.683Z,15.53
2019-01-15T03:01:31.685Z,15.53
2019-01-15T03:02:35.989Z,15.53
2019-01-15T03:03:37.942Z,15.52
2019-01-15T03:04:40.203Z,15.52
2019-01-15T03:05:42.156Z,15.53
2019-01-15T03:06:44.098Z,15.54
2019-01-15T03:07:46.041Z,15.54
2019-01-15T03:08:48.003Z,15.55
2019-01-15T03:09:49.983Z,15.54
2019-01-15T03:10:51.993Z,15.53
2019-01-15T03:11:56.424Z,15.54
2019-01-15T03:12:58.459Z,15.55
2019-01-15T03:14:00.495Z,15.54
2019-01-15T03:15:02.452Z,15.53
2019-01-15T03:16:04.427Z,15.56
2019-01-15T03:17:09.786Z,15.54
2019-01-15T03:18:11.798Z,15.53
2019-01-15T03:19:13.732Z,15.54
2019-01-15T03:20:15.695Z,15.54
2019-01-15T03:21:17.664Z,15.53
2019-01-15T03:22:19.638Z,15.53
2019-01-15T03:23:21.570Z,15.53
2019-01-15T03:24:23.516Z,15.53
2019-01-15T03:25:25.482Z,15.53
2019-01-15T03:26:27.450Z,15.53
2019-01-15T03:27:29.409Z,15.53
2019-01-15T03:28:31.352Z,15.54
2019-01-15T03:29:33.313Z,15.55
2019-01-15T03:30:35.307Z,15.54
2019-01-15T03:31:37.298Z,15.55
2019-01-15T03:32:39.263Z,15.55
2019-01-15T03:33:41.234Z,15.55
2019-01-15T03:34:43.184Z,15.56
2019-01-15T03:35:45.258Z,15.55
2019-01-15T03:36:47.219Z,15.54
2019-01-15T03:37:49.177Z,15.54
2019-01-15T03:38:51.124Z,15.54
2019-01-15T03:39:53.081Z,15.54
2019-01-15T03:40:55.095Z,15.53
2019-01-15T03:41:57.079Z,15.53
2019-01-15T03:43:03.962Z,15.53
2019-01-15T03:44:05.830Z,15.54
2019-01-15T03:45:07.868Z,15.53
2019-01-15T03:46:09.876Z,15.54
2019-01-15T03:47:11.956Z,15.53
2019-01-15T03:48:13.894Z,15.54
2019-01-15T03:49:15.831Z,15.54
2019-01-15T03:50:17.850Z,15.53
2019-01-15T03:51:19.798Z,15.53
2019-01-15T03:52:21.788Z,15.54
2019-01-15T03:53:23.800Z,15.54
2019-01-15T03:54:25.749Z,15.53
2019-01-15T03:55:27.683Z,15.53
2019-01-15T03:56:29.632Z,15.54
2019-01-15T03:57:31.654Z,15.53
2019-01-15T03:58:33.609Z,15.54
2019-01-15T03:59:35.661Z,15.54
2019-01-15T04:00:37.631Z,15.54
2019-01-15T04:01:39.600Z,15.54
2019-01-15T04:02:41.728Z,15.54
2019-01-15T04:03:43.740Z,15.55
2019-01-15T04:04:46.144Z,15.55
2019-01-15T04:05:48.134Z,15.56
2019-01-15T04:06:50.112Z,15.55
2019-01-15T04:07:56.334Z,15.55
2019-01-15T04:08:58.289Z,15.55
2019-01-15T04:10:00.794Z,15.56
2019-01-15T04:11:02.751Z,15.55
2019-01-15T04:12:04.723Z,15.56
2019-01-15T04:13:11.242Z,15.55
2019-01-15T04:14:10.378Z,15.55
2019-01-15T04:15:12.392Z,15.55
2019-01-15T04:16:14.355Z,15.54
2019-01-15T04:17:16.384Z,15.55
2019-01-15T04:18:18.342Z,15.54
2019-01-15T04:19:20.288Z,15.55
2019-01-15T04:20:22.228Z,15.54
2019-01-15T04:21:24.257Z,15.53
2019-01-15T04:22:26.193Z,15.55
2019-01-15T04:23:28.168Z,15.56
2019-01-15T04:24:30.118Z,15.55
2019-01-15T04:25:32.128Z,15.55
2019-01-15T04:26:34.336Z,15.54
2019-01-15T04:27:36.302Z,15.55
2019-01-15T04:28:38.255Z,15.54
2019-01-15T04:29:40.204Z,15.55
2019-01-15T04:30:42.154Z,15.56
2019-01-15T04:31:44.159Z,15.56
2019-01-15T04:32:46.112Z,15.56
2019-01-15T04:33:48.043Z,15.54
2019-01-15T04:34:50.039Z,15.55
2019-01-15T04:35:52.039Z,15.56
2019-01-15T04:36:54.081Z,15.55
2019-01-15T04:37:56.100Z,15.54
2019-01-15T04:38:58.081Z,15.56
2019-01-15T04:40:00.208Z,15.55
2019-01-15T04:41:02.236Z,15.56
2019-01-15T04:42:04.218Z,15.56
2019-01-15T04:43:06.165Z,15.55
2019-01-15T04:44:08.182Z,15.55
2019-01-15T04:45:10.132Z,15.55
2019-01-15T04:46:12.134Z,15.55
2019-01-15T04:47:15.550Z,15.55
2019-01-15T04:48:17.533Z,15.55
2019-01-15T04:49:19.493Z,15.55
2019-01-15T04:50:21.512Z,15.55
2019-01-15T04:51:23.457Z,15.54
2019-01-15T04:52:25.704Z,15.56
2019-01-15T04:53:27.709Z,15.55
2019-01-15T04:54:29.648Z,15.56
2019-01-15T04:55:31.595Z,15.55
2019-01-15T04:56:34.195Z,15.55
2019-01-15T04:57:36.245Z,15.56
2019-01-15T04:58:41.402Z,15.56
2019-01-15T04:59:43.715Z,15.56
2019-01-15T05:00:47.325Z,15.57
2019-01-15T05:01:49.293Z,15.57
2019-01-15T05:02:51.544Z,15.57
2019-01-15T05:03:53.915Z,15.57
2019-01-15T05:04:55.967Z,15.57
2019-01-15T05:05:57.903Z,15.56
2019-01-15T05:07:00.909Z,15.56
2019-01-15T05:08:02.920Z,15.57
2019-01-15T05:09:04.904Z,15.57
2019-01-15T05:10:06.858Z,15.57
2019-01-15T05:11:08.919Z,15.57
2019-01-15T05:12:10.871Z,15.56
2019-01-15T05:13:12.917Z,15.57
2019-01-15T05:14:14.859Z,15.57
2019-01-15T05:15:16.810Z,15.57
2019-01-15T05:16:18.763Z,15.57
2019-01-15T05:17:20.733Z,15.57
2019-01-15T05:18:22.779Z,15.57
2019-01-15T05:19:26.087Z,15.56
2019-01-15T05:20:28.035Z,15.56
2019-01-15T05:21:30.065Z,15.56
2019-01-15T05:22:32.079Z,15.57
2019-01-15T05:23:34.047Z,15.57
2019-01-15T05:24:35.987Z,15.57
2019-01-15T05:25:39.105Z,15.57
2019-01-15T05:26:41.060Z,15.57
2019-01-15T05:27:43.018Z,15.58
2019-01-15T05:28:45.065Z,15.57
2019-01-15T05:29:48.043Z,15.57
2019-01-15T05:30:50.061Z,15.59
2019-01-15T05:31:52.086Z,15.59
2019-01-15T05:32:54.117Z,15.59
2019-01-15T05:33:56.169Z,15.58
2019-01-15T05:34:58.116Z,15.59
2019-01-15T05:36:00.059Z,15.58
2019-01-15T05:37:02.093Z,15.60
2019-01-15T05:38:06.160Z,15.60
2019-01-15T05:39:08.134Z,15.60
2019-01-15T05:40:10.078Z,15.62
2019-01-15T05:41:12.032Z,15.62
2019-01-15T05:42:13.976Z,15.63
2019-01-15T05:43:15.998Z,15.64
2019-01-15T05:44:18.056Z,15.65
2019-01-15T05:45:28.323Z,15.64
2019-01-15T05:46:30.345Z,15.66
2019-01-15T05:47:32.459Z,15.66
2019-01-15T05:48:36.423Z,15.65
2019-01-15T05:49:38.551Z,15.66
2019-01-15T05:50:59.614Z,15.66
2019-01-15T05:52:01.589Z,15.66
2019-01-15T05:53:03.556Z,15.66
2019-01-15T05:54:05.575Z,15.68
2019-01-15T05:55:07.520Z,15.68
2019-01-15T05:56:09.693Z,15.69
2019-01-15T05:57:13.844Z,15.70
2019-01-15T05:58:15.865Z,15.72
2019-01-15T05:59:17.810Z,15.71
2019-01-15T06:00:19.783Z,15.71
2019-01-15T06:01:21.748Z,15.71
2019-01-15T06:02:23.770Z,15.73
2019-01-15T06:03:25.728Z,15.72
2019-01-15T06:04:27.751Z,15.73
2019-01-15T06:05:30.284Z,15.74
2019-01-15T06:06:32.222Z,15.73
2019-01-15T06:07:34.196Z,15.73
2019-01-15T06:08:36.164Z,15.73
2019-01-15T06:09:38.194Z,15.73
2019-01-15T06:10:40.249Z,15.74
2019-01-15T06:11:42.186Z,15.74
2019-01-15T06:12:44.136Z,15.73
2019-01-15T06:13:46.086Z,15.72
2019-01-15T06:14:48.654Z,15.73
2019-01-15T06:15:50.636Z,15.71
2019-01-15T06:16:52.582Z,15.73
2019-01-15T06:17:54.530Z,15.71
2019-01-15T06:18:56.572Z,15.71
2019-01-15T06:20:00.474Z,15.71
2019-01-15T06:21:02.225Z,15.71
2019-01-15T06:22:04.169Z,15.70
2019-01-15T06:23:06.111Z,15.69
2019-01-15T06:24:08.052Z,15.69
2019-01-15T06:25:10.000Z,15.67
2019-01-15T06:26:11.966Z,15.67
2019-01-15T06:27:13.983Z,15.67
2019-01-15T06:28:15.936Z,15.67
2019-01-15T06:29:18.191Z,15.67
2019-01-15T06:30:20.130Z,15.65
2019-01-15T06:31:22.165Z,15.67
2019-01-15T06:32:24.116Z,15.65
2019-01-15T06:33:26.128Z,15.66
2019-01-15T06:34:28.066Z,15.65
2019-01-15T06:35:30.019Z,15.63
2019-01-15T06:36:32.003Z,15.64
2019-01-15T06:37:33.942Z,15.64
2019-01-15T06:38:39.135Z,15.63
2019-01-15T06:39:41.175Z,15.63
2019-01-15T06:40:43.185Z,15.62
2019-01-15T06:41:45.275Z,15.60
2019-01-15T06:42:47.238Z,15.63
2019-01-15T06:43:50.132Z,15.60
2019-01-15T06:44:52.291Z,15.61
2019-01-15T06:45:54.234Z,15.60
2019-01-15T06:46:56.391Z,15.60
2019-01-15T06:47:58.330Z,15.59
2019-01-15T06:49:00.285Z,15.58
2019-01-15T06:50:02.223Z,15.58
2019-01-15T06:51:04.199Z,15.58
2019-01-15T06:52:06.175Z,15.57
2019-01-15T06:53:08.112Z,15.57
2019-01-15T06:54:10.093Z,15.56
2019-01-15T06:55:12.071Z,15.56
2019-01-15T06:56:14.046Z,15.56
2019-01-15T06:57:19.438Z,15.56
2019-01-15T06:58:21.396Z,15.54
2019-01-15T06:59:23.345Z,15.53
2019-01-15T07:00:26.574Z,15.53
2019-01-15T07:01:28.528Z,15.53
2019-01-15T07:02:33.266Z,15.52
2019-01-15T07:03:35.208Z,15.52
2019-01-15T07:04:43.653Z,15.51
2019-01-15T07:05:43.237Z,15.51
2019-01-15T07:06:44.483Z,15.51
2019-01-15T07:07:46.441Z,15.51
2019-01-15T07:08:48.395Z,15.50
2019-01-15T07:09:50.444Z,15.50
2019-01-15T07:10:52.392Z,15.50
2019-01-15T07:11:54.320Z,15.49
2019-01-15T07:12:56.309Z,15.50
2019-01-15T07:13:58.260Z,15.49
2019-01-15T07:15:00.263Z,15.49
2019-01-15T07:16:02.514Z,15.49
2019-01-15T07:17:04.462Z,15.47
2019-01-15T07:18:06.454Z,15.47
2019-01-15T07:19:08.485Z,15.49
2019-01-15T07:20:10.425Z,15.49
2019-01-15T07:21:12.449Z,15.47
2019-01-15T07:22:14.428Z,15.47
2019-01-15T07:23:16.498Z,15.47
2019-01-15T07:24:18.522Z,15.47
2019-01-15T07:25:20.492Z,15.47
2019-01-15T07:26:22.435Z,15.46
2019-01-15T07:27:26.033Z,15.47
2019-01-15T07:28:27.985Z,15.48
2019-01-15T07:29:34.361Z,15.47
2019-01-15T07:30:36.357Z,15.47
2019-01-15T07:31:38.314Z,15.46
2019-01-15T07:32:40.334Z,15.45
2019-01-15T07:33:43.770Z,15.46
2019-01-15T07:34:45.733Z,15.46
2019-01-15T07:35:50.900Z,15.45
2019-01-15T07:36:52.871Z,15.47
2019-01-15T07:37:54.800Z,15.48
2019-01-15T07:38:56.757Z,15.50
2019-01-15T07:39:58.711Z,15.52
2019-01-15T07:41:00.667Z,15.55
2019-01-15T07:42:02.620Z,15.56
2019-01-15T07:43:04.553Z,15.58
2019-01-15T07:44:06.534Z,15.62
2019-01-15T07:45:08.483Z,15.65
2019-01-15T07:46:10.427Z,15.68
2019-01-15T07:47:12.659Z,15.71
2019-01-15T07:48:14.745Z,15.75
2019-01-15T07:49:16.755Z,15.78
2019-01-15T07:50:18.723Z,15.81
2019-01-15T07:51:20.654Z,15.82
2019-01-15T07:52:22.593Z,15.83
2019-01-15T07:53:25.019Z,15.83
2019-01-15T07:54:27.519Z,15.83
2019-01-15T07:55:29.483Z,15.85
2019-01-15T07:56:31.505Z,15.85
2019-01-15T07:57:33.461Z,15.86
2019-01-15T07:58:38.700Z,15.84
2019-01-15T07:59:43.791Z,15.84
2019-01-15T08:00:45.782Z,15.85
2019-01-15T08:01:47.799Z,15.84
2019-01-15T08:02:49.757Z,15.85
2019-01-15T08:03:51.708Z,15.85
2019-01-15T08:04:53.766Z,15.84
2019-01-15T08:05:55.783Z,15.84
2019-01-15T08:06:57.801Z,15.82
2019-01-15T08:07:59.819Z,15.82
2019-01-15T08:09:01.781Z,15.82
2019-01-15T08:10:03.835Z,15.79
2019-01-15T08:11:05.786Z,15.78
2019-01-15T08:12:07.773Z,15.77
2019-01-15T08:13:09.761Z,15.76
2019-01-15T08:14:12.389Z,15.76
2019-01-15T08:15:14.528Z,15.75
2019-01-15T08:16:16.491Z,15.75
2019-01-15T08:17:18.459Z,15.73
2019-01-15T08:18:20.399Z,15.73
2019-01-15T08:19:22.609Z,15.71
2019-01-15T08:20:24.626Z,15.71
2019-01-15T08:21:26.567Z,15.70
2019-01-15T08:22:28.521Z,15.69
2019-01-15T08:23:30.539Z,15.68
2019-01-15T08:24:32.497Z,15.67
2019-01-15T08:25:34.479Z,15.66
2019-01-15T08:26:36.495Z,15.66
2019-01-15T08:27:39.105Z,15.65
2019-01-15T08:28:41.295Z,15.65
2019-01-15T08:29:43.259Z,15.64
2019-01-15T08:30:45.368Z,15.63
2019-01-15T08:31:49.745Z,15.62
2019-01-15T08:32:51.704Z,15.62
2019-01-15T08:33:53.641Z,15.60
2019-01-15T08:34:55.597Z,15.58
2019-01-15T08:35:57.641Z,15.59
2019-01-15T08:36:59.579Z,15.58
2019-01-15T08:38:01.518Z,15.58
2019-01-15T08:39:05.608Z,15.56
2019-01-15T08:40:07.348Z,15.56
2019-01-15T08:41:09.330Z,15.55
2019-01-15T08:42:11.349Z,15.54
2019-01-15T08:43:13.368Z,15.54
2019-01-15T08:44:19.161Z,15.53
2019-01-15T08:45:19.051Z,15.53
2019-01-15T08:46:21.028Z,15.52
2019-01-15T08:47:23.147Z,15.51
2019-01-15T08:48:27.390Z,15.51
2019-01-15T08:49:29.332Z,15.50
2019-01-15T08:50:31.271Z,15.50
2019-01-15T08:51:33.330Z,15.49
2019-01-15T08:52:35.256Z,15.49
2019-01-15T08:53:37.495Z,15.49
2019-01-15T08:54:39.462Z,15.48
2019-01-15T08:55:44.918Z,15.47
2019-01-15T08:56:46.973Z,15.48
2019-01-15T08:57:48.932Z,15.49
2019-01-15T08:58:50.888Z,15.50
2019-01-15T08:59:52.844Z,15.53
2019-01-15T09:00:54.780Z,15.56
2019-01-15T09:02:00.152Z,15.59
2019-01-15T09:03:02.244Z,15.62
2019-01-15T09:04:04.190Z,15.66
2019-01-15T09:05:06.193Z,15.71
2019-01-15T09:06:08.131Z,15.75
2019-01-15T09:07:10.110Z,15.79
2019-01-15T09:08:12.068Z,15.82
2019-01-15T09:09:14.087Z,15.84
2019-01-15T09:10:16.149Z,15.86
2019-01-15T09:11:18.167Z,15.87
2019-01-15T09:12:20.160Z,15.90
2019-01-15T09:13:22.144Z,15.93
2019-01-15T09:14:27.041Z,15.95
2019-01-15T09:15:27.780Z,15.96
2019-01-15T09:16:29.799Z,15.97
2019-01-15T09:17:31.798Z,15.98
2019-01-15T09:18:33.750Z,15.98
2019-01-15T09:19:35.777Z,15.98
2019-01-15T09:20:37.826Z,15.97
2019-01-15T09:21:39.856Z,15.95
2019-01-15T09:22:41.949Z,15.94
2019-01-15T09:23:44.115Z,15.92
2019-01-15T09:24:46.141Z,15.91
2019-01-15T09:25:48.238Z,15.91
2019-01-15T09:26:50.242Z,15.89
2019-01-15T09:27:52.219Z,15.89
2019-01-15T09:28:54.267Z,15.88
2019-01-15T09:29:56.201Z,15.87
2019-01-15T09:30:58.152Z,15.87
2019-01-15T09:32:03.408Z,15.85
2019-01-15T09:33:05.372Z,15.83
2019-01-15T09:34:07.435Z,15.82
2019-01-15T09:35:09.515Z,15.80
2019-01-15T09:36:11.496Z,15.78
2019-01-15T09:37:14.018Z,15.78
2019-01-15T09:38:16.069Z,15.76
2019-01-15T09:39:17.997Z,15.76
2019-01-15T09:40:19.938Z,15.74
2019-01-15T09:41:21.879Z,15.72
2019-01-15T09:42:24.095Z,15.72
2019-01-15T09:43:26.126Z,15.70
2019-01-15T09:44:33.960Z,15.70
2019-01-15T09:45:31.765Z,15.69
2019-01-15T09:46:33.709Z,15.67
2019-01-15T09:47:37.295Z,15.66
2019-01-15T09:48:39.487Z,15.65
2019-01-15T09:49:41.439Z,15.64
2019-01-15T09:50:43.389Z,15.62
2019-01-15T09:51:45.343Z,15.62
2019-01-15T09:52:47.375Z,15.62
2019-01-15T09:53:49.345Z,15.59
2019-01-15T09:54:51.300Z,15.58
2019-01-15T09:55:53.225Z,15.57
2019-01-15T09:56:55.378Z,15.56
2019-01-15T09:57:57.381Z,15.56
2019-01-15T09:58:59.369Z,15.55
2019-01-15T10:00:01.339Z,15.54
2019-01-15T10:01:03.318Z,15.54
2019-01-15T10:02:05.271Z,15.53
2019-01-15T10:03:07.208Z,15.52
2019-01-15T10:04:09.189Z,15.51
2019-01-15T10:05:11.130Z,15.49
2019-01-15T10:06:13.330Z,15.50
2019-01-15T10:07:15.357Z,15.49
2019-01-15T10:08:17.297Z,15.48
2019-01-15T10:09:19.369Z,15.48
2019-01-15T10:10:21.391Z,15.47
2019-01-15T10:11:23.340Z,15.47
2019-01-15T10:12:25.281Z,15.46
2019-01-15T10:13:27.222Z,15.45
2019-01-15T10:14:29.278Z,15.46
2019-01-15T10:15:31.297Z,15.45
2019-01-15T10:16:33.269Z,15.47
2019-01-15T10:17:35.294Z,15.48
2019-01-15T10:18:37.226Z,15.49
2019-01-15T10:19:39.190Z,15.53
2019-01-15T10:20:41.128Z,15.56
2019-01-15T10:21:43.452Z,15.60
2019-01-15T10:22:45.386Z,15.63
2019-01-15T10:23:47.331Z,15.67
2019-01-15T10:24:49.697Z,15.69
2019-01-15T10:25:51.921Z,15.73
2019-01-15T10:26:55.349Z,15.77
2019-01-15T10:27:58.393Z,15.79
2019-01-15T10:29:00.363Z,15.81
2019-01-15T10:30:03.391Z,15.83
2019-01-15T10:31:05.419Z,15.86
2019-01-15T10:32:09.790Z,15.89
2019-01-15T10:33:11.733Z,15.89
2019-01-15T10:34:13.676Z,15.92
2019-01-15T10:35:15.634Z,15.92
2019-01-15T10:36:17.565Z,15.95
2019-01-15T10:37:19.522Z,15.96
2019-01-15T10:38:21.449Z,15.97
2019-01-15T10:39:23.494Z,15.97
2019-01-15T10:40:25.496Z,15.98
2019-01-15T10:41:27.438Z,15.98
2019-01-15T10:42:29.631Z,15.98
2019-01-15T10:43:31.555Z,15.99
2019-01-15T10:44:33.494Z,15.98
2019-01-15T10:45:35.471Z,15.97
2019-01-15T10:46:37.419Z,15.96
2019-01-15T10:47:39.381Z,15.95
2019-01-15T10:48:41.448Z,15.93
2019-01-15T10:49:43.433Z,15.91
2019-01-15T10:50:45.410Z,15.91
2019-01-15T10:51:47.360Z,15.88
2019-01-15T10:52:49.319Z,15.89
2019-01-15T10:53:51.336Z,15.88
2019-01-15T10:54:53.737Z,15.86
2019-01-15T10:55:55.747Z,15.86
2019-01-15T10:56:57.690Z,15.85
2019-01-15T10:57:59.628Z,15.84
2019-01-15T10:59:01.651Z,15.82
2019-01-15T11:00:03.585Z,15.80
2019-01-15T11:01:05.559Z,15.80
2019-01-15T11:02:07.578Z,15.79
2019-01-15T11:03:09.606Z,15.78
2019-01-15T11:04:11.605Z,15.76
2019-01-15T11:05:13.541Z,15.75
2019-01-15T11:06:15.521Z,15.74
2019-01-15T11:07:17.451Z,15.74
2019-01-15T11:08:19.395Z,15.73
2019-01-15T11:09:21.346Z,15.73
2019-01-15T11:10:23.386Z,15.71
2019-01-15T11:11:25.446Z,15.71
2019-01-15T11:12:29.735Z,15.70
2019-01-15T11:13:31.675Z,15.69
2019-01-15T11:14:33.786Z,15.68
2019-01-15T11:15:39.472Z,15.67
2019-01-15T11:16:39.780Z,15.67
2019-01-15T11:17:41.802Z,15.67
2019-01-15T11:18:43.739Z,15.66
2019-01-15T11:19:45.691Z,15.64
2019-01-15T11:20:47.641Z,15.64
2019-01-15T11:21:49.755Z,15.63
2019-01-15T11:22:51.697Z,15.63
2019-01-15T11:23:53.637Z,15.61
2019-01-15T11:24:55.593Z,15.60
2019-01-15T11:25:59.256Z,15.59
2019-01-15T11:27:01.294Z,15.58
2019-01-15T11:28:03.226Z,15.58
2019-01-15T11:29:05.176Z,15.58
2019-01-15T11:30:07.202Z,15.56
2019-01-15T11:31:09.163Z,15.57
2019-01-15T11:32:11.141Z,15.55
2019-01-15T11:33:13.088Z,15.53
2019-01-15T11:34:15.030Z,15.53
2019-01-15T11:35:16.974Z,15.54
2019-01-15T11:36:20.502Z,15.53
2019-01-15T11:37:22.452Z,15.53
2019-01-15T11:38:24.400Z,15.51
2019-01-15T11:39:26.335Z,15.51
2019-01-15T11:40:28.322Z,15.51
2019-01-15T11:41:30.340Z,15.50
2019-01-15T11:42:32.458Z,15.51
2019-01-15T11:43:34.400Z,15.49
2019-01-15T11:44:36.819Z,15.49
2019-01-15T11:45:38.758Z,15.49
2019-01-15T11:46:40.694Z,15.50
2019-01-15T11:47:42.668Z,15.49
2019-01-15T11:48:44.622Z,15.52
2019-01-15T11:49:46.582Z,15.53
2019-01-15T11:50:48.576Z,15.56
2019-01-15T11:51:50.579Z,15.57
2019-01-15T11:52:52.577Z,15.61
2019-01-15T11:53:54.570Z,15.64
2019-01-15T11:54:56.514Z,15.67
2019-01-15T11:55:58.470Z,15.69
2019-01-15T11:57:00.422Z,15.73
2019-01-15T11:58:02.403Z,15.75
2019-01-15T11:59:04.351Z,15.77
2019-01-15T12:00:06.474Z,15.80
2019-01-15T12:01:15.891Z,15.81
2019-01-15T12:02:27.788Z,15.82
2019-01-15T12:03:55.203Z,15.84
2019-01-15T12:05:25.456Z,15.87
2019-01-15T12:06:45.605Z,15.89
2019-01-15T12:08:18.866Z,15.92
2019-01-15T12:09:39.036Z,15.93
2019-01-15T12:11:08.909Z,15.94
2019-01-15T12:12:28.730Z,15.95
2019-01-15T12:13:59.127Z,15.97
2019-01-15T12:15:18.553Z,15.96
2019-01-15T12:16:38.525Z,15.96
2019-01-15T12:18:00.385Z,15.97
2019-01-15T12:19:27.528Z,15.95
2019-01-15T12:20:51.661Z,15.95
2019-01-15T12:22:10.566Z,15.94
2019-01-15T12:23:25.272Z,15.92
2019-01-15T12:24:49.530Z,15.89
2019-01-15T12:26:13.338Z,15.87
2019-01-15T12:27:25.326Z,15.87
2019-01-15T12:28:43.449Z,15.85
2019-01-15T12:30:03.214Z,15.85
2019-01-15T12:31:23.962Z,15.83
2019-01-15T12:32:43.874Z,15.82
2019-01-15T12:33:57.298Z,15.81
2019-01-15T12:35:33.689Z,15.79
2019-01-15T12:37:00.343Z,15.79
2019-01-15T12:38:36.531Z,15.77
2019-01-15T12:40:09.348Z,15.76
2019-01-15T12:41:42.192Z,15.74
2019-01-15T12:43:09.020Z,15.74
2019-01-15T12:44:28.969Z,15.72
2019-01-15T12:45:43.617Z,15.71
2019-01-15T12:47:10.792Z,15.69
2019-01-15T12:48:41.042Z,15.68
2019-01-15T12:50:09.437Z,15.68
2019-01-15T12:51:22.079Z,15.67
2019-01-15T12:52:48.825Z,15.66
2019-01-15T12:54:09.022Z,15.65
2019-01-15T12:55:26.429Z,15.66
2019-01-15T12:56:46.653Z,15.65
2019-01-15T12:58:22.757Z,15.64
2019-01-15T12:59:58.678Z,15.63
2019-01-15T13:01:25.322Z,15.63
2019-01-15T13:03:02.515Z,15.62
2019-01-15T13:04:22.287Z,15.63
2019-01-15T13:05:46.403Z,15.63
2019-01-15T13:07:04.069Z,15.65
2019-01-15T13:08:34.370Z,15.64
2019-01-15T13:09:46.185Z,15.66
2019-01-15T13:11:02.191Z,15.66
2019-01-15T13:12:32.590Z,15.67
2019-01-15T13:13:52.392Z,15.68
2019-01-15T13:15:12.073Z,15.68
2019-01-15T13:16:32.181Z,15.68
2019-01-15T13:18:00.881Z,15.70
2019-01-15T13:19:22.938Z,15.69
2019-01-15T13:20:43.958Z,15.70
2019-01-15T13:22:13.926Z,15.69
2019-01-15T13:23:33.431Z,15.68
2019-01-15T13:25:05.343Z,15.70
2019-01-15T13:26:23.875Z,15.70
2019-01-15T13:27:47.829Z,15.70
2019-01-15T13:29:17.551Z,15.70
2019-01-15T13:30:36.513Z,15.71
2019-01-15T13:31:57.604Z,15.71
2019-01-15T13:33:17.381Z,15.69
2019-01-15T13:34:37.142Z,15.69
2019-01-15T13:36:00.977Z,15.68
2019-01-15T13:37:20.165Z,15.70
2019-01-15T13:38:50.657Z,15.71
2019-01-15T13:40:14.223Z,15.69
2019-01-15T13:41:35.263Z,15.70
2019-01-15T13:43:02.480Z,15.69
2019-01-15T13:44:18.397Z,15.71
2019-01-15T13:45:41.555Z,15.69
2019-01-15T13:46:53.306Z,15.70
2019-01-15T13:48:13.294Z,15.70